首页
METAR-TAF:

METAR-TAF

机场 :

尼亞姆圖古, 多哥

纬度: 09-46N, 经度: 001-06E, 海拔: 342米

当前天气观测

该预报发布于2小时和3分钟前的14:00 UTC
风速4节,风向南转西南
温度 23°C
湿度 89%
气压 1017 hPa
能见度10公里或以上
多云层高于600英尺
少量云层高于1600英尺, 积雨云.
雷暴, 雨

METAR: DXNG 161400Z 21004KT 9999 TSRA BKN006 FEW016CB 23/21 Q1017 NOSIG

时间: 16:03 (16:03 UTC)

预报

该预报发布于5小时和3分钟前的11:00 UTC
预报有效从16日的 12点(UTC)到 17日的 12点(UTC)
风速5节,风向多变
能见度10公里或以上
多云层高于600英尺
少量云层高于1600英尺, 积雨云.
短暂存在
从 16日的 12点(UTC)到 16日的 18点(UTC)
能見度: 4000
雷暴, 雨
成为
从 16日的 18点(UTC)到 16日的 20点(UTC)
散云层高于600英尺
成为
从 17日的 04点(UTC)到 17日的 06点(UTC)
多云层高于600英尺

TAF: DXNG 161100Z 1612/1712 VRB05KT 9999 BKN006 FEW016CB TEMPO 1612/1618 4000 TSRA BECMG 1618/1620 SCT006 BECMG 1704/1706 BKN006

超过4000个机场的气象观测和天气预报(METAR&TAF报告)。

可查询的气象台以黄色和红色小点在地图上表示。

将鼠标移到小点上方,可查看气象台名称。

然后点击查看天气观测和预报。

如需切换地图:点击带黑十字的绿色按钮放大地图;点击带横线的绿色按钮缩小地图;或者点击绿色箭头查看邻近地区的地图。


METAR-TAF: